Time;durP1;ratioP1;P1;durP2;ratioP2;P2;SDS_P1;SDS_P2;PMS_P1;PMS_P2;Temp;Humidity;BMP_temperature;BMP_pressure;BME280_temperature;BME280_humidity;BME280_pressure;Samples;Min_cycle;Max_cycle;Signal;HPM_P1;HPM_P2
2022/08/17 00:01:30;;;;;;;7.55;5.65;;;;;;;;;;5054387;28;20060;-55
2022/08/17 00:03:58;;;;;;;8.15;5.30;;;;;;;;;;5054119;28;20126;-55
2022/08/17 00:06:27;;;;;;;8.77;5.63;;;;;;;;;;5053834;28;20049;-52
2022/08/17 00:08:55;;;;;;;10.18;6.05;;;;;;;;;;5053222;28;20053;-55
2022/08/17 00:11:23;;;;;;;7.80;5.75;;;;;;;;;;5053903;28;20049;-53
2022/08/17 00:13:56;;;;;;;8.98;6.28;;;;;;;;;;5053499;28;20075;-55
2022/08/17 00:16:34;;;;;;;8.45;6.25;;;;;;;;;;5053534;28;20085;-54
2022/08/17 00:19:09;;;;;;;11.25;7.90;;;;;;;;;;5053059;28;20052;-53
2022/08/17 00:21:42;;;;;;;9.68;7.13;;;;;;;;;;5053434;28;20052;-55
2022/08/17 00:24:10;;;;;;;9.00;6.60;;;;;;;;;;5053757;28;20064;-52
2022/08/17 00:26:40;;;;;;;10.23;6.72;;;;;;;;;;5053370;28;20064;-54
2022/08/17 00:29:10;;;;;;;10.73;7.78;;;;;;;;;;5052946;28;20134;-55
2022/08/17 00:31:40;;;;;;;9.70;7.18;;;;;;;;;;5053584;28;20076;-53
2022/08/17 00:34:11;;;;;;;11.93;7.93;;;;;;;;;;5053358;28;20106;-52
2022/08/17 00:36:38;;;;;;;11.75;7.40;;;;;;;;;;5053420;28;20107;-53
2022/08/17 00:39:05;;;;;;;10.02;6.25;;;;;;;;;;5052880;28;20048;-53
2022/08/17 00:41:34;;;;;;;8.50;6.15;;;;;;;;;;5053636;28;20063;-53
2022/08/17 00:44:04;;;;;;;10.00;7.28;;;;;;;;;;5053216;28;20052;-52
2022/08/17 00:46:32;;;;;;;11.73;6.82;;;;;;;;;;5053478;28;20159;-51
2022/08/17 00:49:01;;;;;;;10.15;6.90;;;;;;;;;;5052921;28;20103;-52
2022/08/17 00:51:32;;;;;;;9.80;7.03;;;;;;;;;;5053132;28;20072;-53
2022/08/17 00:54:11;;;;;;;9.13;6.70;;;;;;;;;;5032841;28;20092;-54
2022/08/17 00:56:41;;;;;;;9.27;6.65;;;;;;;;;;5033328;28;20053;-53
2022/08/17 00:59:13;;;;;;;8.68;6.85;;;;;;;;;;5044164;28;20055;-55
2022/08/17 01:01:51;;;;;;;9.70;7.32;;;;;;;;;;5053164;28;20068;-56
2022/08/17 01:04:21;;;;;;;9.52;6.90;;;;;;;;;;5033242;28;20057;-54
2022/08/17 01:06:51;;;;;;;10.07;6.57;;;;;;;;;;5032542;28;20059;-55
2022/08/17 01:09:26;;;;;;;10.35;7.18;;;;;;;;;;5046147;28;20149;-52
2022/08/17 01:11:54;;;;;;;9.82;6.53;;;;;;;;;;5053104;28;20044;-52
2022/08/17 01:14:23;;;;;;;9.85;6.60;;;;;;;;;;5052989;28;20061;-54
2022/08/17 01:16:59;;;;;;;10.40;6.30;;;;;;;;;;5052868;28;20064;-52
2022/08/17 01:19:29;;;;;;;11.10;7.88;;;;;;;;;;5052989;28;20114;-52
2022/08/17 01:22:00;;;;;;;11.95;7.20;;;;;;;;;;5053078;28;20060;-54
2022/08/17 01:24:42;;;;;;;9.23;6.60;;;;;;;;;;5053069;28;20060;-54
2022/08/17 01:27:15;;;;;;;10.35;7.20;;;;;;;;;;5052987;28;20047;-52
2022/08/17 01:29:55;;;;;;;10.00;6.32;;;;;;;;;;5052636;28;20477;-52
2022/08/17 01:32:26;;;;;;;8.80;6.40;;;;;;;;;;5052805;28;20128;-52
2022/08/17 01:34:56;;;;;;;10.98;6.50;;;;;;;;;;5052666;28;20450;-52
2022/08/17 01:37:28;;;;;;;9.05;6.82;;;;;;;;;;5052906;28;20049;-55
2022/08/17 01:39:59;;;;;;;9.05;6.82;;;;;;;;;;5052909;28;20057;-53
2022/08/17 01:42:35;;;;;;;10.85;7.10;;;;;;;;;;5052705;28;20052;-55
2022/08/17 01:45:05;;;;;;;8.93;6.15;;;;;;;;;;5052431;28;20049;-55
2022/08/17 01:47:33;;;;;;;10.18;7.30;;;;;;;;;;5052469;28;20135;-51
2022/08/17 01:50:07;;;;;;;11.43;7.97;;;;;;;;;;5053012;28;20053;-52
2022/08/17 01:52:38;;;;;;;10.00;7.22;;;;;;;;;;5052123;28;20048;-53
2022/08/17 01:55:12;;;;;;;10.13;6.80;;;;;;;;;;5052584;28;20424;-54
2022/08/17 01:57:44;;;;;;;10.13;6.88;;;;;;;;;;5041723;28;20423;-51
2022/08/17 02:00:20;;;;;;;9.73;6.18;;;;;;;;;;5052345;28;20052;-52
2022/08/17 02:02:49;;;;;;;8.63;5.85;;;;;;;;;;5052432;28;20377;-53
2022/08/17 02:05:18;;;;;;;15.43;9.57;;;;;;;;;;5052393;28;20045;-53
2022/08/17 02:07:46;;;;;;;15.13;9.63;;;;;;;;;;5052584;28;20044;-55
2022/08/17 02:10:28;;;;;;;10.75;7.75;;;;;;;;;;5052366;28;20363;-52
2022/08/17 02:12:57;;;;;;;9.27;6.53;;;;;;;;;;5052546;28;20136;-55
2022/08/17 02:15:27;;;;;;;10.10;7.63;;;;;;;;;;5052141;28;20065;-55
2022/08/17 02:17:53;;;;;;;10.63;6.47;;;;;;;;;;5055329;28;20099;-54
2022/08/17 02:20:24;;;;;;;11.07;7.95;;;;;;;;;;5056083;28;20074;-54
2022/08/17 02:22:53;;;;;;;9.80;6.85;;;;;;;;;;5055954;28;20084;-52
2022/08/17 02:25:35;;;;;;;7.03;5.43;;;;;;;;;;5056052;28;20067;-55
2022/08/17 02:28:06;;;;;;;9.82;6.57;;;;;;;;;;5055660;28;20081;-53
2022/08/17 02:30:35;;;;;;;9.50;7.68;;;;;;;;;;5055605;28;20057;-53
2022/08/17 02:33:05;;;;;;;11.10;7.65;;;;;;;;;;5055766;28;20052;-53
2022/08/17 02:35:36;;;;;;;8.57;6.75;;;;;;;;;;5055512;28;20825;-52
2022/08/17 02:38:04;;;;;;;8.05;6.25;;;;;;;;;;5055792;28;20045;-52
2022/08/17 02:40:40;;;;;;;9.63;6.25;;;;;;;;;;5055164;28;20056;-55
2022/08/17 02:43:07;;;;;;;8.07;6.25;;;;;;;;;;5055543;28;20071;-55
2022/08/17 02:45:36;;;;;;;8.38;6.30;;;;;;;;;;5055461;28;20049;-55
2022/08/17 02:48:06;;;;;;;8.48;6.15;;;;;;;;;;5055539;28;20091;-55
2022/08/17 02:50:33;;;;;;;9.82;6.95;;;;;;;;;;5055710;28;20081;-54
2022/08/17 02:53:05;;;;;;;9.63;7.07;;;;;;;;;;5055349;28;20063;-54
2022/08/17 02:55:46;;;;;;;9.45;6.70;;;;;;;;;;5055219;28;20454;-53
2022/08/17 02:58:16;;;;;;;7.28;5.72;;;;;;;;;;5055342;28;20060;-51
2022/08/17 03:00:47;;;;;;;9.13;6.05;;;;;;;;;;5055248;28;20091;-53
2022/08/17 03:03:25;;;;;;;10.07;7.05;;;;;;;;;;5055495;28;20168;-55
2022/08/17 03:05:53;;;;;;;9.02;6.32;;;;;;;;;;5055272;28;20052;-52
2022/08/17 03:08:22;;;;;;;9.48;6.47;;;;;;;;;;5055084;28;20347;-53
2022/08/17 03:10:58;;;;;;;12.85;9.48;;;;;;;;;;5054722;28;20374;-55
2022/08/17 03:13:26;;;;;;;11.75;8.07;;;;;;;;;;5053956;28;20057;-54
2022/08/17 03:15:55;;;;;;;9.35;6.95;;;;;;;;;;5054438;28;20099;-51
2022/08/17 03:18:24;;;;;;;10.85;7.80;;;;;;;;;;5054703;28;20128;-55
2022/08/17 03:20:53;;;;;;;12.25;8.07;;;;;;;;;;5054590;28;20063;-53
2022/08/17 03:23:22;;;;;;;10.07;7.28;;;;;;;;;;5054280;28;20052;-53
2022/08/17 03:25:48;;;;;;;13.82;7.82;;;;;;;;;;5054819;28;20060;-54
2022/08/17 03:28:27;;;;;;;9.63;7.75;;;;;;;;;;5053901;28;20053;-55
2022/08/17 03:30:54;;;;;;;10.15;7.47;;;;;;;;;;5054986;28;20056;-55
2022/08/17 03:33:22;;;;;;;11.52;7.35;;;;;;;;;;5054668;28;20064;-51
2022/08/17 03:35:51;;;;;;;11.43;7.65;;;;;;;;;;5054983;28;20080;-54
2022/08/17 03:38:19;;;;;;;8.98;6.82;;;;;;;;;;5054695;28;20049;-51
2022/08/17 03:40:48;;;;;;;11.57;7.65;;;;;;;;;;5054678;28;20041;-51
2022/08/17 03:43:33;;;;;;;8.95;6.50;;;;;;;;;;5054086;28;20432;-52
2022/08/17 03:57:10;;;;;;;9.38;7.00;;;;;;;;;;5033992;28;20057;-54
2022/08/17 03:59:40;;;;;;;11.07;8.10;;;;;;;;;;5048166;28;20053;-55
2022/08/17 04:02:09;;;;;;;9.57;6.82;;;;;;;;;;5052366;28;20057;-54
2022/08/17 04:04:37;;;;;;;9.23;6.30;;;;;;;;;;5038421;28;20444;-54
2022/08/17 04:07:07;;;;;;;12.10;6.25;;;;;;;;;;5053871;28;20053;-55
2022/08/17 04:09:36;;;;;;;13.35;7.70;;;;;;;;;;5049485;28;20124;-52
2022/08/17 04:12:05;;;;;;;11.20;7.40;;;;;;;;;;5052754;28;20123;-51
2022/08/17 04:14:41;;;;;;;9.32;6.55;;;;;;;;;;5052550;28;20135;-52
2022/08/17 04:17:12;;;;;;;10.93;7.53;;;;;;;;;;5053223;28;20053;-53
2022/08/17 04:19:40;;;;;;;10.35;7.25;;;;;;;;;;5052866;28;20056;-55
2022/08/17 04:22:07;;;;;;;11.70;7.05;;;;;;;;;;5053273;28;20053;-54
2022/08/17 04:24:35;;;;;;;13.10;8.73;;;;;;;;;;5052913;28;20080;-51
2022/08/17 04:27:05;;;;;;;13.77;7.05;;;;;;;;;;5053276;28;20064;-52
2022/08/17 04:29:32;;;;;;;9.82;6.47;;;;;;;;;;5052722;28;20052;-52
2022/08/17 04:32:10;;;;;;;9.48;6.20;;;;;;;;;;5053338;28;20131;-53
2022/08/17 04:34:40;;;;;;;11.40;6.38;;;;;;;;;;5053360;28;20072;-53
2022/08/17 04:37:08;;;;;;;10.55;5.80;;;;;;;;;;5053258;28;20767;-54
2022/08/17 04:39:34;;;;;;;12.63;7.28;;;;;;;;;;5053113;28;20055;-55
2022/08/17 04:42:08;;;;;;;11.65;6.47;;;;;;;;;;5052271;28;20067;-54
2022/08/17 04:44:36;;;;;;;8.43;5.85;;;;;;;;;;5053918;28;20067;-54
2022/08/17 04:47:03;;;;;;;7.20;5.72;;;;;;;;;;5052204;28;20045;-55
2022/08/17 04:49:34;;;;;;;11.13;6.50;;;;;;;;;;5052392;28;20114;-52
2022/08/17 04:52:03;;;;;;;11.43;5.82;;;;;;;;;;5043462;28;20049;-55
2022/08/17 04:54:33;;;;;;;8.75;6.40;;;;;;;;;;5053045;28;20536;-54
2022/08/17 04:57:03;;;;;;;11.98;6.45;;;;;;;;;;5052400;28;20056;-55
2022/08/17 04:59:32;;;;;;;7.53;5.93;;;;;;;;;;5052990;28;20111;-53
2022/08/17 05:04:40;;;;;;;7.35;5.65;;;;;;;;;;5053095;28;20052;-52
2022/08/17 05:07:18;;;;;;;6.88;5.03;;;;;;;;;;5052834;28;20063;-54
2022/08/17 05:09:45;;;;;;;8.80;5.97;;;;;;;;;;5051857;28;20056;-54
2022/08/17 05:12:14;;;;;;;7.90;5.57;;;;;;;;;;5053172;28;20055;-55
2022/08/17 05:14:40;;;;;;;9.23;5.35;;;;;;;;;;5052651;28;20059;-52
2022/08/17 05:17:07;;;;;;;7.13;5.22;;;;;;;;;;5052581;28;20140;-52
2022/08/17 05:19:34;;;;;;;8.93;5.47;;;;;;;;;;5052999;28;20052;-53
2022/08/17 05:22:04;;;;;;;6.85;4.70;;;;;;;;;;5052788;28;20073;-51
2022/08/17 05:24:44;;;;;;;9.98;6.30;;;;;;;;;;5053021;28;20118;-54
2022/08/17 05:27:17;;;;;;;6.75;4.80;;;;;;;;;;5053039;28;20049;-53
2022/08/17 05:29:44;;;;;;;7.20;4.85;;;;;;;;;;5052634;28;20064;-53
2022/08/17 05:32:13;;;;;;;6.57;5.20;;;;;;;;;;5052400;28;20049;-54
2022/08/17 05:34:42;;;;;;;9.60;5.75;;;;;;;;;;5052462;28;20082;-51
2022/08/17 05:37:10;;;;;;;9.60;5.78;;;;;;;;;;5052456;28;20111;-53
2022/08/17 05:39:40;;;;;;;9.95;5.15;;;;;;;;;;5050383;28;20470;-55
2022/08/17 05:42:17;;;;;;;9.68;5.95;;;;;;;;;;5045986;28;20095;-52
2022/08/17 05:44:47;;;;;;;8.75;5.15;;;;;;;;;;5032716;28;20049;-51
2022/08/17 05:47:16;;;;;;;8.10;5.50;;;;;;;;;;5032501;28;20050;-54
2022/08/17 05:49:46;;;;;;;8.23;5.28;;;;;;;;;;5043516;28;20377;-55
2022/08/17 05:52:18;;;;;;;13.45;6.85;;;;;;;;;;5054355;28;20045;-55
2022/08/17 05:55:04;;;;;;;12.20;5.85;;;;;;;;;;5056106;28;20059;-55
2022/08/17 05:57:39;;;;;;;10.43;6.35;;;;;;;;;;5056220;28;20049;-53
2022/08/17 06:00:12;;;;;;;9.48;5.93;;;;;;;;;;5056363;28;20055;-55
2022/08/17 06:02:43;;;;;;;10.10;5.97;;;;;;;;;;5056310;28;20422;-55
2022/08/17 06:05:15;;;;;;;13.27;5.45;;;;;;;;;;5056128;28;20053;-53
2022/08/17 06:07:48;;;;;;;11.02;5.88;;;;;;;;;;5056100;28;20053;-55
2022/08/17 06:10:24;;;;;;;14.15;7.15;;;;;;;;;;5055800;28;20123;-54
2022/08/17 06:12:55;;;;;;;13.93;7.20;;;;;;;;;;5055307;28;20052;-52
2022/08/17 06:15:28;;;;;;;13.32;6.82;;;;;;;;;;5054748;28;20044;-55
2022/08/17 06:17:59;;;;;;;10.65;6.18;;;;;;;;;;5055457;28;20049;-55
2022/08/17 06:20:30;;;;;;;13.18;7.45;;;;;;;;;;5055731;28;20572;-55
2022/08/17 06:23:18;;;;;;;8.75;5.75;;;;;;;;;;5055661;28;20450;-51
2022/08/17 06:26:02;;;;;;;10.60;5.82;;;;;;;;;;5055413;28;20389;-51
2022/08/17 06:28:33;;;;;;;9.48;6.13;;;;;;;;;;5054157;28;20452;-54
2022/08/17 06:31:04;;;;;;;9.30;5.35;;;;;;;;;;5055384;28;20458;-55
2022/08/17 06:33:40;;;;;;;7.30;4.80;;;;;;;;;;5055251;28;20059;-54
2022/08/17 06:36:16;;;;;;;6.18;4.65;;;;;;;;;;5055776;28;20049;-51
2022/08/17 06:38:48;;;;;;;9.00;5.53;;;;;;;;;;5045621;28;20049;-52
2022/08/17 06:41:33;;;;;;;6.22;4.93;;;;;;;;;;5035469;28;20107;-55
2022/08/17 06:44:10;;;;;;;6.78;4.18;;;;;;;;;;5035612;28;20076;-51
2022/08/17 06:46:38;;;;;;;6.40;4.07;;;;;;;;;;5035436;28;20068;-55
2022/08/17 06:49:09;;;;;;;6.53;4.30;;;;;;;;;;5035252;28;20060;-55
2022/08/17 06:51:46;;;;;;;6.75;4.90;;;;;;;;;;5036059;28;20049;-53
2022/08/17 06:54:21;;;;;;;6.60;4.53;;;;;;;;;;5055092;28;20057;-53
2022/08/17 06:56:50;;;;;;;7.30;4.30;;;;;;;;;;5055225;28;20049;-55
2022/08/17 06:59:32;;;;;;;8.38;5.07;;;;;;;;;;5055052;28;20052;-56
2022/08/17 07:02:04;;;;;;;5.88;3.70;;;;;;;;;;5054753;28;20053;-54
2022/08/17 07:04:33;;;;;;;8.57;4.53;;;;;;;;;;5053601;28;20057;-56
2022/08/17 07:08:00;;;;;;;6.72;4.00;;;;;;;;;;5054779;28;20053;-55
2022/08/17 07:09:52;;;;;;;4.75;3.63;;;;;;;;;;5053635;28;20053;-55
2022/08/17 07:12:28;;;;;;;7.30;4.28;;;;;;;;;;5054809;28;20512;-54
2022/08/17 07:15:15;;;;;;;6.82;4.45;;;;;;;;;;5054978;28;20157;-55
2022/08/17 07:17:45;;;;;;;5.63;3.60;;;;;;;;;;5034895;28;20061;-53
2022/08/17 07:20:19;;;;;;;4.72;3.83;;;;;;;;;;5034871;28;20132;-55
2022/08/17 07:22:49;;;;;;;6.22;4.00;;;;;;;;;;5042466;28;20048;-55
2022/08/17 07:25:18;;;;;;;5.28;3.95;;;;;;;;;;5052980;28;20076;-55
2022/08/17 07:27:50;;;;;;;4.32;3.50;;;;;;;;;;5054618;28;20144;-54
2022/08/17 07:30:21;;;;;;;6.38;3.92;;;;;;;;;;5053987;28;20358;-55
2022/08/17 07:32:49;;;;;;;6.07;3.88;;;;;;;;;;5054230;28;20134;-52
2022/08/17 07:35:26;;;;;;;5.13;3.33;;;;;;;;;;5043551;28;20053;-53
2022/08/17 07:38:07;;;;;;;3.90;3.22;;;;;;;;;;5034750;28;20084;-52
2022/08/17 07:40:36;;;;;;;4.88;2.83;;;;;;;;;;5034248;28;20089;-54
2022/08/17 07:43:25;;;;;;;6.00;3.13;;;;;;;;;;5033890;28;20053;-55
2022/08/17 07:48:48;;;;;;;4.53;3.33;;;;;;;;;;5032990;28;20057;-52
2022/08/17 07:51:17;;;;;;;4.50;3.15;;;;;;;;;;5033917;28;20076;-54
2022/08/17 07:53:46;;;;;;;6.20;3.63;;;;;;;;;;5051600;28;20063;-52
2022/08/17 07:56:35;;;;;;;6.47;3.63;;;;;;;;;;5054284;28;20094;-52
2022/08/17 07:59:19;;;;;;;5.22;3.35;;;;;;;;;;5054134;28;20048;-53
2022/08/17 08:02:04;;;;;;;4.93;3.53;;;;;;;;;;5054322;28;20064;-52
2022/08/17 08:04:35;;;;;;;4.22;3.50;;;;;;;;;;5053832;28;20083;-52
2022/08/17 08:07:05;;;;;;;5.72;3.60;;;;;;;;;;5053242;28;20057;-52
2022/08/17 08:09:39;;;;;;;4.28;3.08;;;;;;;;;;5053835;28;20155;-53
2022/08/17 08:12:28;;;;;;;5.07;3.58;;;;;;;;;;5054059;28;20053;-52
2022/08/17 08:15:06;;;;;;;4.10;3.17;;;;;;;;;;5053338;28;20064;-52
2022/08/17 08:17:49;;;;;;;4.07;3.30;;;;;;;;;;5034014;28;20053;-55
2022/08/17 08:20:20;;;;;;;4.82;3.30;;;;;;;;;;5044956;28;20068;-54
2022/08/17 08:22:55;;;;;;;4.45;3.22;;;;;;;;;;5040280;28;20053;-52
2022/08/17 08:25:25;;;;;;;4.22;3.17;;;;;;;;;;5053308;28;20052;-53
2022/08/17 08:27:56;;;;;;;3.78;2.83;;;;;;;;;;5054037;28;20080;-53
2022/08/17 08:30:23;;;;;;;3.65;2.92;;;;;;;;;;5051532;28;20056;-51
2022/08/17 08:33:16;;;;;;;5.07;3.70;;;;;;;;;;5046539;28;20056;-54
2022/08/17 08:35:54;;;;;;;5.38;3.92;;;;;;;;;;5053125;28;20449;-53
2022/08/17 08:38:44;;;;;;;4.60;3.20;;;;;;;;;;5051701;28;20115;-54
2022/08/17 08:41:25;;;;;;;4.68;3.83;;;;;;;;;;5053402;28;20060;-54
2022/08/17 08:44:10;;;;;;;11.65;4.13;;;;;;;;;;5040816;28;20550;-53
2022/08/17 08:47:04;;;;;;;5.25;3.58;;;;;;;;;;5053801;28;20056;-52
2022/08/17 08:49:54;;;;;;;8.13;4.30;;;;;;;;;;5052856;28;20138;-51
2022/08/17 08:52:32;;;;;;;4.93;3.85;;;;;;;;;;5045019;28;20061;-54
2022/08/17 08:55:06;;;;;;;7.20;4.85;;;;;;;;;;5053541;28;20060;-51
2022/08/17 08:57:43;;;;;;;5.60;4.03;;;;;;;;;;5053454;28;20060;-53
2022/08/17 09:00:14;;;;;;;9.02;4.10;;;;;;;;;;5052582;28;20461;-52
2022/08/17 09:02:57;;;;;;;6.28;3.90;;;;;;;;;;5053338;28;20057;-50
2022/08/17 09:05:32;;;;;;;5.32;3.90;;;;;;;;;;5052633;28;20057;-50
2022/08/17 09:08:09;;;;;;;5.40;3.58;;;;;;;;;;5053176;28;20458;-54
2022/08/17 09:10:41;;;;;;;4.72;4.05;;;;;;;;;;5053413;28;20045;-52
2022/08/17 09:13:19;;;;;;;7.00;4.65;;;;;;;;;;5053508;28;20126;-50
2022/08/17 09:15:47;;;;;;;5.93;3.95;;;;;;;;;;5052902;28;20462;-51
2022/08/17 09:18:24;;;;;;;5.38;4.15;;;;;;;;;;5052331;28;20053;-51
2022/08/17 09:20:58;;;;;;;5.15;4.18;;;;;;;;;;5053208;28;20053;-53
2022/08/17 09:23:25;;;;;;;;;;;;;;;;;;5052511;28;20068;-50
2022/08/17 09:25:58;;;;;;;5.80;4.30;;;;;;;;;;5052636;28;20364;-50
2022/08/17 09:28:29;;;;;;;6.00;3.95;;;;;;;;;;5055486;28;20049;-50
2022/08/17 09:31:00;;;;;;;6.93;4.70;;;;;;;;;;5049520;28;20048;-53
2022/08/17 09:33:29;;;;;;;6.38;4.80;;;;;;;;;;5051791;28;20053;-53
2022/08/17 09:35:59;;;;;;;7.47;4.93;;;;;;;;;;5057448;28;20060;-50
2022/08/17 09:38:30;;;;;;;5.47;4.60;;;;;;;;;;5037557;28;20462;-51
2022/08/17 09:41:09;;;;;;;9.38;5.03;;;;;;;;;;5037916;28;20052;-53
2022/08/17 09:43:41;;;;;;;6.95;4.32;;;;;;;;;;5037605;28;20061;-54
2022/08/17 09:46:14;;;;;;;6.18;4.88;;;;;;;;;;5037860;28;20142;-54
2022/08/17 09:48:47;;;;;;;6.43;4.30;;;;;;;;;;5037036;28;20085;-50
2022/08/17 09:51:18;;;;;;;5.18;4.13;;;;;;;;;;5037366;28;20042;-50
2022/08/17 09:53:48;;;;;;;5.00;4.10;;;;;;;;;;5055226;28;20063;-50
2022/08/17 09:56:32;;;;;;;6.07;4.30;;;;;;;;;;5057292;28;20049;-50
2022/08/17 09:59:17;;;;;;;6.07;4.45;;;;;;;;;;5038855;28;20053;-51
2022/08/17 10:01:49;;;;;;;7.10;4.03;;;;;;;;;;5057086;28;20095;-51
2022/08/17 10:04:32;;;;;;;4.93;3.80;;;;;;;;;;5056177;28;20111;-50
2022/08/17 10:07:06;;;;;;;5.75;4.40;;;;;;;;;;5055825;28;20053;-51
2022/08/17 10:09:41;;;;;;;5.60;4.22;;;;;;;;;;5055914;28;20056;-50
2022/08/17 10:12:25;;;;;;;5.97;4.90;;;;;;;;;;5056136;28;20134;-50
2022/08/17 10:15:06;;;;;;;7.13;4.20;;;;;;;;;;5056172;28;20061;-51
2022/08/17 10:17:36;;;;;;;6.38;4.00;;;;;;;;;;5036197;28;20477;-53
2022/08/17 10:20:09;;;;;;;7.05;4.80;;;;;;;;;;5035976;28;20064;-50
2022/08/17 10:28:12;;;;;;;6.38;4.32;;;;;;;;;;5035775;28;20211;-54
2022/08/17 10:30:50;;;;;;;6.88;5.15;;;;;;;;;;5035400;28;20140;-52
2022/08/17 10:33:22;;;;;;;5.55;4.68;;;;;;;;;;5035429;28;20053;-51
2022/08/17 10:35:52;;;;;;;5.75;4.40;;;;;;;;;;5052633;28;20138;-50
2022/08/17 10:38:30;;;;;;;7.47;4.70;;;;;;;;;;5055290;28;20049;-54
2022/08/17 10:41:00;;;;;;;5.50;4.40;;;;;;;;;;5054866;28;20077;-52
2022/08/17 10:43:45;;;;;;;7.70;5.18;;;;;;;;;;5055440;28;20049;-53
2022/08/17 10:46:30;;;;;;;7.68;4.07;;;;;;;;;;5055153;28;20053;-52
2022/08/17 10:49:29;;;;;;;7.07;4.57;;;;;;;;;;5055311;28;20359;-53
2022/08/17 10:51:58;;;;;;;6.15;4.90;;;;;;;;;;4993518;28;20046;-51
2022/08/17 10:54:44;;;;;;;6.45;4.88;;;;;;;;;;4993343;28;20517;-51
2022/08/17 10:57:33;;;;;;;8.70;4.65;;;;;;;;;;4993623;28;20078;-50
2022/08/17 11:00:02;;;;;;;7.07;5.07;;;;;;;;;;4993580;28;20051;-50
2022/08/17 11:02:40;;;;;;;7.50;5.13;;;;;;;;;;4993720;28;20058;-52
2022/08/17 11:05:18;;;;;;;5.50;4.30;;;;;;;;;;4993586;28;20054;-54
2022/08/17 11:08:04;;;;;;;4.90;4.40;;;;;;;;;;5051672;28;20053;-53
2022/08/17 11:10:46;;;;;;;7.28;5.28;;;;;;;;;;5054875;28;20420;-53
2022/08/17 11:13:26;;;;;;;8.20;5.65;;;;;;;;;;5054588;28;20452;-51
2022/08/17 11:15:58;;;;;;;8.45;5.57;;;;;;;;;;5054767;28;20049;-54
2022/08/17 11:18:41;;;;;;;6.72;4.82;;;;;;;;;;5054641;28;20059;-51
2022/08/17 11:21:31;;;;;;;7.13;4.88;;;;;;;;;;5054199;28;20049;-53
2022/08/17 11:24:04;;;;;;;7.03;4.93;;;;;;;;;;5054891;28;20081;-54
2022/08/17 11:26:35;;;;;;;6.90;5.85;;;;;;;;;;5054625;28;20053;-50
2022/08/17 11:29:07;;;;;;;7.32;5.13;;;;;;;;;;5054220;28;20068;-54
2022/08/17 11:31:45;;;;;;;6.93;5.03;;;;;;;;;;5054679;28;20049;-52
2022/08/17 11:34:20;;;;;;;5.78;4.93;;;;;;;;;;5054407;28;20482;-52
2022/08/17 11:37:05;;;;;;;7.93;4.68;;;;;;;;;;5054408;28;20049;-51
2022/08/17 11:39:46;;;;;;;5.38;4.25;;;;;;;;;;4992686;28;20058;-50
2022/08/17 11:42:25;;;;;;;5.22;4.40;;;;;;;;;;4990919;28;20050;-51
2022/08/17 11:44:55;;;;;;;5.97;4.45;;;;;;;;;;4989411;28;20058;-52
2022/08/17 11:53:37;;;;;;;7.50;5.25;;;;;;;;;;5054228;28;20083;-50
2022/08/17 11:56:14;;;;;;;7.60;5.47;;;;;;;;;;5054129;28;20052;-54
2022/08/17 11:58:41;;;;;;;7.05;4.35;;;;;;;;;;5053912;28;20523;-53
2022/08/17 12:01:10;;;;;;;7.05;4.95;;;;;;;;;;5053113;28;20523;-53
2022/08/17 12:03:45;;;;;;;5.68;4.45;;;;;;;;;;5052086;28;20052;-54
2022/08/17 12:06:23;;;;;;;6.15;4.28;;;;;;;;;;5053417;28;20453;-50
2022/08/17 12:08:52;;;;;;;5.57;4.50;;;;;;;;;;5053797;28;20053;-50
2022/08/17 12:11:24;;;;;;;5.50;4.40;;;;;;;;;;5054127;28;20059;-50
2022/08/17 12:13:52;;;;;;;5.47;4.40;;;;;;;;;;5053765;28;20143;-50
2022/08/17 12:16:20;;;;;;;4.40;3.78;;;;;;;;;;5053665;28;20080;-50
2022/08/17 12:18:52;;;;;;;6.47;5.07;;;;;;;;;;5054167;28;20049;-50
2022/08/17 12:21:40;;;;;;;4.40;3.90;;;;;;;;;;5054133;28;20055;-50
2022/08/17 12:24:12;;;;;;;4.78;3.95;;;;;;;;;;5044274;28;20142;-51
2022/08/17 12:26:44;;;;;;;5.60;3.92;;;;;;;;;;5053666;28;20057;-53
2022/08/17 12:29:13;;;;;;;5.22;4.28;;;;;;;;;;5053038;28;20562;-50
2022/08/17 12:31:43;;;;;;;5.55;4.05;;;;;;;;;;5054100;28;20060;-53
2022/08/17 12:34:14;;;;;;;6.18;4.43;;;;;;;;;;5053131;28;20083;-53
2022/08/17 12:36:51;;;;;;;5.88;4.40;;;;;;;;;;5053255;28;20052;-50
2022/08/17 12:39:22;;;;;;;6.25;4.53;;;;;;;;;;5053080;28;20580;-50
2022/08/17 12:41:58;;;;;;;4.53;3.80;;;;;;;;;;5053371;28;20076;-52
2022/08/17 12:44:26;;;;;;;6.68;4.68;;;;;;;;;;5052209;28;20060;-52
2022/08/17 12:46:55;;;;;;;6.88;4.65;;;;;;;;;;5052551;28;20416;-50
2022/08/17 12:49:38;;;;;;;5.93;4.90;;;;;;;;;;5053074;28;20057;-51
2022/08/17 12:52:24;;;;;;;5.90;4.38;;;;;;;;;;5051979;28;20126;-52
2022/08/17 12:54:54;;;;;;;6.28;4.38;;;;;;;;;;5052770;28;20052;-50
2022/08/17 12:57:25;;;;;;;6.00;4.45;;;;;;;;;;5052917;28;20053;-52
2022/08/17 12:59:53;;;;;;;5.95;4.22;;;;;;;;;;5053216;28;20056;-52
2022/08/17 13:02:32;;;;;;;5.28;4.50;;;;;;;;;;5052125;28;20037;-52
2022/08/17 13:05:00;;;;;;;6.55;4.35;;;;;;;;;;5052802;28;20136;-50
2022/08/17 13:07:36;;;;;;;5.95;4.10;;;;;;;;;;5053108;28;20362;-50
2022/08/17 13:10:04;;;;;;;5.30;4.03;;;;;;;;;;5052986;28;20064;-51
2022/08/17 13:12:42;;;;;;;6.25;4.65;;;;;;;;;;5052338;28;20049;-53
2022/08/17 13:15:19;;;;;;;8.88;4.50;;;;;;;;;;5052810;28;20057;-54
2022/08/17 13:17:55;;;;;;;6.93;4.60;;;;;;;;;;5052851;28;20106;-53
2022/08/17 13:20:25;;;;;;;5.45;4.55;;;;;;;;;;5053046;28;20060;-54
2022/08/17 13:23:02;;;;;;;4.70;3.80;;;;;;;;;;5052638;28;20075;-53
2022/08/17 13:25:29;;;;;;;6.22;4.32;;;;;;;;;;5053045;28;20118;-54
2022/08/17 13:27:57;;;;;;;7.90;5.30;;;;;;;;;;5052549;28;20056;-50
2022/08/17 13:30:27;;;;;;;7.68;5.35;;;;;;;;;;5052155;28;20056;-50
2022/08/17 13:32:56;;;;;;;7.80;4.82;;;;;;;;;;5052758;28;20067;-51
2022/08/17 13:35:43;;;;;;;8.85;5.63;;;;;;;;;;5052801;28;20049;-50
2022/08/17 13:38:39;;;;;;;6.72;5.35;;;;;;;;;;5052852;28;20052;-52
2022/08/17 13:41:06;;;;;;;8.88;5.55;;;;;;;;;;5052138;28;20516;-51
2022/08/17 13:43:43;;;;;;;8.52;6.05;;;;;;;;;;5052382;28;20049;-50
2022/08/17 13:46:17;;;;;;;8.25;5.57;;;;;;;;;;5052465;28;20117;-54
2022/08/17 13:48:45;;;;;;;8.23;6.07;;;;;;;;;;5052648;28;20072;-53
2022/08/17 13:51:29;;;;;;;8.45;6.07;;;;;;;;;;5052557;28;20055;-52
2022/08/17 13:54:04;;;;;;;11.60;7.07;;;;;;;;;;5052005;28;20398;-50
2022/08/17 13:56:46;;;;;;;11.80;6.88;;;;;;;;;;5032168;28;20067;-50
2022/08/17 13:59:15;;;;;;;11.18;6.55;;;;;;;;;;5034268;28;20048;-52
2022/08/17 14:01:47;;;;;;;8.93;6.03;;;;;;;;;;5052585;28;20045;-54
2022/08/17 14:04:15;;;;;;;9.25;6.75;;;;;;;;;;5052590;28;20049;-52
2022/08/17 14:06:47;;;;;;;7.15;5.35;;;;;;;;;;5052326;28;20131;-52
2022/08/17 14:09:22;;;;;;;8.45;6.85;;;;;;;;;;5052255;28;20049;-50
2022/08/17 14:11:52;;;;;;;8.43;6.07;;;;;;;;;;5052492;28;20075;-53
2022/08/17 14:14:23;;;;;;;7.20;6.28;;;;;;;;;;5055610;28;20488;-53
2022/08/17 14:16:49;;;;;;;9.65;7.07;;;;;;;;;;5050790;28;20366;-50
2022/08/17 14:19:20;;;;;;;10.45;7.35;;;;;;;;;;5056334;28;20049;-53
2022/08/17 14:21:47;;;;;;;9.70;7.55;;;;;;;;;;5056289;28;20049;-53
2022/08/17 14:24:21;;;;;;;11.52;8.93;;;;;;;;;;5045539;28;20052;-54
2022/08/17 14:26:51;;;;;;;10.15;8.25;;;;;;;;;;5055906;28;20091;-51
2022/08/17 14:29:22;;;;;;;11.35;7.72;;;;;;;;;;5054722;28;20068;-52
2022/08/17 14:31:50;;;;;;;9.30;6.95;;;;;;;;;;5054898;28;20063;-52
2022/08/17 14:34:21;;;;;;;15.48;9.73;;;;;;;;;;5054210;28;20068;-55
2022/08/17 14:36:51;;;;;;;13.50;8.80;;;;;;;;;;5054033;28;20053;-55
2022/08/17 14:39:33;;;;;;;10.20;8.45;;;;;;;;;;5054428;28;20152;-54
2022/08/17 14:42:03;;;;;;;11.75;7.80;;;;;;;;;;5053919;28;20075;-55
2022/08/17 14:44:33;;;;;;;12.25;8.50;;;;;;;;;;5055697;28;20048;-52
2022/08/17 14:47:03;;;;;;;11.77;8.38;;;;;;;;;;5045120;28;20059;-55
2022/08/17 14:49:44;;;;;;;13.85;9.85;;;;;;;;;;5055969;28;20560;-55
2022/08/17 14:52:15;;;;;;;14.50;9.90;;;;;;;;;;5044638;28;20107;-53
2022/08/17 14:54:44;;;;;;;11.57;8.50;;;;;;;;;;5052411;28;20178;-54
2022/08/17 14:57:16;;;;;;;11.82;9.57;;;;;;;;;;5048699;28;20051;-54
2022/08/17 14:59:44;;;;;;;12.95;9.77;;;;;;;;;;5052744;28;20385;-55
2022/08/17 15:02:12;;;;;;;8.95;7.85;;;;;;;;;;5041949;28;20045;-54
2022/08/17 15:04:46;;;;;;;9.70;8.68;;;;;;;;;;5050015;28;20050;-55
2022/08/17 15:07:13;;;;;;;11.60;9.15;;;;;;;;;;5051469;28;20045;-54
2022/08/17 15:09:42;;;;;;;14.35;9.23;;;;;;;;;;5054635;28;20048;-55
2022/08/17 15:12:15;;;;;;;12.05;8.60;;;;;;;;;;5055004;28;20212;-54
2022/08/17 15:14:42;;;;;;;11.25;8.93;;;;;;;;;;5054479;28;20045;-52
2022/08/17 15:17:12;;;;;;;12.48;8.77;;;;;;;;;;5052405;28;20083;-53
2022/08/17 15:19:43;;;;;;;13.85;10.20;;;;;;;;;;5054499;28;20114;-52
2022/08/17 15:22:16;;;;;;;14.30;9.63;;;;;;;;;;5052491;28;20064;-54
2022/08/17 15:24:45;;;;;;;14.05;10.68;;;;;;;;;;5048134;28;20053;-55
2022/08/17 15:27:14;;;;;;;12.75;10.40;;;;;;;;;;5055642;28;20091;-52
2022/08/17 15:29:41;;;;;;;10.48;9.35;;;;;;;;;;5052623;28;20052;-55
2022/08/17 15:32:08;;;;;;;10.93;8.05;;;;;;;;;;5054942;28;20049;-55
2022/08/17 15:34:36;;;;;;;11.82;8.43;;;;;;;;;;5054937;28;20052;-54
2022/08/17 15:37:05;;;;;;;12.00;9.15;;;;;;;;;;5054825;28;20072;-55
2022/08/17 15:39:32;;;;;;;12.65;9.15;;;;;;;;;;5055309;28;20049;-55
2022/08/17 15:42:09;;;;;;;15.32;9.80;;;;;;;;;;5052994;28;20128;-55